sensor_id;sensor_type;location;lat;lon;timestamp;P1;durP1;ratioP1;P2;durP2;ratioP2
3006;SDS011;1513;47.650;10.720;2023-02-28T00:01:20;16.23;;;8.77;;
3006;SDS011;1513;47.650;10.720;2023-02-28T00:03:46;16.07;;;7.90;;
3006;SDS011;1513;47.650;10.720;2023-02-28T00:06:12;20.37;;;8.27;;
3006;SDS011;1513;47.650;10.720;2023-02-28T00:08:39;19.30;;;8.90;;
3006;SDS011;1513;47.650;10.720;2023-02-28T00:11:06;24.20;;;9.97;;
3006;SDS011;1513;47.650;10.720;2023-02-28T00:13:35;16.30;;;8.80;;
3006;SDS011;1513;47.650;10.720;2023-02-28T00:16:05;22.80;;;10.10;;
3006;SDS011;1513;47.650;10.720;2023-02-28T00:18:35;22.50;;;9.30;;
3006;SDS011;1513;47.650;10.720;2023-02-28T00:21:02;22.47;;;9.53;;
3006;SDS011;1513;47.650;10.720;2023-02-28T00:23:29;21.57;;;9.80;;
3006;SDS011;1513;47.650;10.720;2023-02-28T00:25:55;22.33;;;10.43;;
3006;SDS011;1513;47.650;10.720;2023-02-28T00:28:22;20.73;;;8.20;;
3006;SDS011;1513;47.650;10.720;2023-02-28T00:30:49;21.30;;;8.80;;
3006;SDS011;1513;47.650;10.720;2023-02-28T00:33:15;22.10;;;8.90;;
3006;SDS011;1513;47.650;10.720;2023-02-28T00:35:42;25.33;;;8.40;;
3006;SDS011;1513;47.650;10.720;2023-02-28T00:38:11;24.93;;;9.93;;
3006;SDS011;1513;47.650;10.720;2023-02-28T00:40:40;21.97;;;10.47;;
3006;SDS011;1513;47.650;10.720;2023-02-28T00:43:07;16.67;;;8.13;;
3006;SDS011;1513;47.650;10.720;2023-02-28T00:45:33;20.83;;;9.00;;
3006;SDS011;1513;47.650;10.720;2023-02-28T00:47:59;22.30;;;8.87;;
3006;SDS011;1513;47.650;10.720;2023-02-28T00:50:25;16.53;;;7.30;;
3006;SDS011;1513;47.650;10.720;2023-02-28T00:52:52;19.10;;;8.30;;
3006;SDS011;1513;47.650;10.720;2023-02-28T00:55:19;22.70;;;9.30;;
3006;SDS011;1513;47.650;10.720;2023-02-28T00:57:47;18.77;;;8.57;;
3006;SDS011;1513;47.650;10.720;2023-02-28T01:00:13;19.07;;;8.87;;
3006;SDS011;1513;47.650;10.720;2023-02-28T01:02:41;22.67;;;8.73;;
3006;SDS011;1513;47.650;10.720;2023-02-28T01:05:08;27.17;;;8.80;;
3006;SDS011;1513;47.650;10.720;2023-02-28T01:07:34;19.13;;;8.50;;
3006;SDS011;1513;47.650;10.720;2023-02-28T01:10:00;20.10;;;8.67;;
3006;SDS011;1513;47.650;10.720;2023-02-28T01:12:26;24.27;;;9.47;;
3006;SDS011;1513;47.650;10.720;2023-02-28T01:14:53;19.40;;;8.90;;
3006;SDS011;1513;47.650;10.720;2023-02-28T01:17:20;17.17;;;7.60;;
3006;SDS011;1513;47.650;10.720;2023-02-28T01:19:47;17.87;;;8.07;;
3006;SDS011;1513;47.650;10.720;2023-02-28T01:22:13;19.17;;;8.10;;
3006;SDS011;1513;47.650;10.720;2023-02-28T01:24:41;21.37;;;8.63;;
3006;SDS011;1513;47.650;10.720;2023-02-28T01:27:11;19.80;;;8.33;;
3006;SDS011;1513;47.650;10.720;2023-02-28T01:29:37;19.90;;;8.70;;
3006;SDS011;1513;47.650;10.720;2023-02-28T01:32:04;17.73;;;7.87;;
3006;SDS011;1513;47.650;10.720;2023-02-28T01:34:30;24.33;;;9.63;;
3006;SDS011;1513;47.650;10.720;2023-02-28T01:36:56;17.30;;;8.60;;
3006;SDS011;1513;47.650;10.720;2023-02-28T01:39:24;17.50;;;7.90;;
3006;SDS011;1513;47.650;10.720;2023-02-28T01:41:51;29.77;;;9.67;;
3006;SDS011;1513;47.650;10.720;2023-02-28T01:47:21;19.57;;;8.93;;
3006;SDS011;1513;47.650;10.720;2023-02-28T01:49:49;20.17;;;8.67;;
3006;SDS011;1513;47.650;10.720;2023-02-28T01:52:16;27.13;;;10.10;;
3006;SDS011;1513;47.650;10.720;2023-02-28T01:54:49;19.07;;;8.47;;
3006;SDS011;1513;47.650;10.720;2023-02-28T01:57:18;19.53;;;8.90;;
3006;SDS011;1513;47.650;10.720;2023-02-28T02:00:00;28.80;;;9.80;;
3006;SDS011;1513;47.650;10.720;2023-02-28T02:02:38;25.60;;;8.77;;
3006;SDS011;1513;47.650;10.720;2023-02-28T02:05:10;17.93;;;7.57;;
3006;SDS011;1513;47.650;10.720;2023-02-28T02:07:45;22.13;;;8.63;;
3006;SDS011;1513;47.650;10.720;2023-02-28T02:10:21;17.60;;;9.03;;
3006;SDS011;1513;47.650;10.720;2023-02-28T02:13:24;20.37;;;8.67;;
3006;SDS011;1513;47.650;10.720;2023-02-28T02:27:13;23.07;;;9.77;;
3006;SDS011;1513;47.650;10.720;2023-02-28T02:30:08;24.53;;;9.43;;
3006;SDS011;1513;47.650;10.720;2023-02-28T02:33:02;19.40;;;8.03;;
3006;SDS011;1513;47.650;10.720;2023-02-28T02:35:56;26.07;;;8.80;;
3006;SDS011;1513;47.650;10.720;2023-02-28T02:41:32;20.93;;;9.00;;
3006;SDS011;1513;47.650;10.720;2023-02-28T02:44:20;20.70;;;9.00;;
3006;SDS011;1513;47.650;10.720;2023-02-28T02:46:48;26.10;;;9.83;;
3006;SDS011;1513;47.650;10.720;2023-02-28T02:49:20;23.53;;;9.10;;
3006;SDS011;1513;47.650;10.720;2023-02-28T02:51:49;29.80;;;9.77;;
3006;SDS011;1513;47.650;10.720;2023-02-28T02:54:19;29.83;;;10.47;;
3006;SDS011;1513;47.650;10.720;2023-02-28T02:56:48;19.27;;;8.20;;
3006;SDS011;1513;47.650;10.720;2023-02-28T02:59:16;23.30;;;9.80;;
3006;SDS011;1513;47.650;10.720;2023-02-28T03:01:50;22.03;;;8.50;;
3006;SDS011;1513;47.650;10.720;2023-02-28T03:04:20;26.37;;;9.50;;
3006;SDS011;1513;47.650;10.720;2023-02-28T03:06:47;28.57;;;12.07;;
3006;SDS011;1513;47.650;10.720;2023-02-28T03:09:21;16.93;;;8.23;;
3006;SDS011;1513;47.650;10.720;2023-02-28T03:11:48;23.40;;;9.60;;
3006;SDS011;1513;47.650;10.720;2023-02-28T03:25:43;24.83;;;9.37;;
3006;SDS011;1513;47.650;10.720;2023-02-28T03:33:30;25.20;;;10.67;;
3006;SDS011;1513;47.650;10.720;2023-02-28T03:36:03;22.27;;;8.53;;
3006;SDS011;1513;47.650;10.720;2023-02-28T03:38:36;18.20;;;9.00;;
3006;SDS011;1513;47.650;10.720;2023-02-28T03:41:17;20.90;;;9.17;;
3006;SDS011;1513;47.650;10.720;2023-02-28T03:43:49;29.90;;;10.10;;
3006;SDS011;1513;47.650;10.720;2023-02-28T03:46:19;25.00;;;10.37;;
3006;SDS011;1513;47.650;10.720;2023-02-28T03:48:54;26.20;;;9.80;;
3006;SDS011;1513;47.650;10.720;2023-02-28T03:51:24;20.93;;;10.27;;
3006;SDS011;1513;47.650;10.720;2023-02-28T03:53:53;23.53;;;9.77;;
3006;SDS011;1513;47.650;10.720;2023-02-28T03:56:24;19.70;;;10.10;;
3006;SDS011;1513;47.650;10.720;2023-02-28T03:59:05;21.23;;;9.83;;
3006;SDS011;1513;47.650;10.720;2023-02-28T04:01:41;20.70;;;8.70;;
3006;SDS011;1513;47.650;10.720;2023-02-28T04:04:09;26.00;;;9.83;;
3006;SDS011;1513;47.650;10.720;2023-02-28T04:06:36;29.10;;;10.43;;
3006;SDS011;1513;47.650;10.720;2023-02-28T04:09:03;30.30;;;11.23;;
3006;SDS011;1513;47.650;10.720;2023-02-28T04:11:32;24.07;;;11.63;;
3006;SDS011;1513;47.650;10.720;2023-02-28T04:14:03;23.17;;;10.30;;
3006;SDS011;1513;47.650;10.720;2023-02-28T04:16:31;23.10;;;8.70;;
3006;SDS011;1513;47.650;10.720;2023-02-28T04:18:57;25.97;;;10.07;;
3006;SDS011;1513;47.650;10.720;2023-02-28T04:21:34;20.47;;;9.30;;
3006;SDS011;1513;47.650;10.720;2023-02-28T04:24:01;25.33;;;10.30;;
3006;SDS011;1513;47.650;10.720;2023-02-28T04:26:31;26.03;;;9.80;;
3006;SDS011;1513;47.650;10.720;2023-02-28T04:28:59;28.23;;;10.07;;
3006;SDS011;1513;47.650;10.720;2023-02-28T04:31:26;26.90;;;10.60;;
3006;SDS011;1513;47.650;10.720;2023-02-28T04:33:52;24.30;;;10.00;;
3006;SDS011;1513;47.650;10.720;2023-02-28T04:36:18;23.77;;;10.00;;
3006;SDS011;1513;47.650;10.720;2023-02-28T04:38:45;28.17;;;10.53;;
3006;SDS011;1513;47.650;10.720;2023-02-28T04:41:12;27.00;;;10.70;;
3006;SDS011;1513;47.650;10.720;2023-02-28T04:43:38;34.00;;;11.17;;
3006;SDS011;1513;47.650;10.720;2023-02-28T04:46:05;22.23;;;9.63;;
3006;SDS011;1513;47.650;10.720;2023-02-28T04:48:32;27.23;;;10.07;;
3006;SDS011;1513;47.650;10.720;2023-02-28T04:51:04;22.53;;;10.00;;
3006;SDS011;1513;47.650;10.720;2023-02-28T04:53:33;41.00;;;10.57;;
3006;SDS011;1513;47.650;10.720;2023-02-28T04:55:59;24.83;;;10.30;;
3006;SDS011;1513;47.650;10.720;2023-02-28T04:58:26;21.97;;;8.90;;
3006;SDS011;1513;47.650;10.720;2023-02-28T05:00:53;19.47;;;9.10;;
3006;SDS011;1513;47.650;10.720;2023-02-28T05:03:20;24.00;;;11.07;;
3006;SDS011;1513;47.650;10.720;2023-02-28T05:05:47;23.60;;;8.97;;
3006;SDS011;1513;47.650;10.720;2023-02-28T05:08:14;26.87;;;8.70;;
3006;SDS011;1513;47.650;10.720;2023-02-28T05:10:40;23.57;;;9.13;;
3006;SDS011;1513;47.650;10.720;2023-02-28T05:13:06;27.47;;;10.67;;
3006;SDS011;1513;47.650;10.720;2023-02-28T05:15:34;25.00;;;9.67;;
3006;SDS011;1513;47.650;10.720;2023-02-28T05:18:00;26.97;;;10.20;;
3006;SDS011;1513;47.650;10.720;2023-02-28T05:20:27;26.40;;;9.63;;
3006;SDS011;1513;47.650;10.720;2023-02-28T05:22:53;26.70;;;10.57;;
3006;SDS011;1513;47.650;10.720;2023-02-28T05:25:20;18.03;;;9.10;;
3006;SDS011;1513;47.650;10.720;2023-02-28T05:27:47;24.70;;;10.47;;
3006;SDS011;1513;47.650;10.720;2023-02-28T05:30:14;28.43;;;10.67;;
3006;SDS011;1513;47.650;10.720;2023-02-28T05:32:41;29.23;;;11.20;;
3006;SDS011;1513;47.650;10.720;2023-02-28T05:35:10;24.53;;;10.03;;
3006;SDS011;1513;47.650;10.720;2023-02-28T05:37:37;25.17;;;9.27;;
3006;SDS011;1513;47.650;10.720;2023-02-28T05:40:04;24.83;;;9.67;;
3006;SDS011;1513;47.650;10.720;2023-02-28T05:42:32;27.80;;;9.47;;
3006;SDS011;1513;47.650;10.720;2023-02-28T05:44:58;31.40;;;11.10;;
3006;SDS011;1513;47.650;10.720;2023-02-28T05:47:25;32.30;;;11.27;;
3006;SDS011;1513;47.650;10.720;2023-02-28T05:49:51;25.13;;;9.77;;
3006;SDS011;1513;47.650;10.720;2023-02-28T05:52:17;28.03;;;11.03;;
3006;SDS011;1513;47.650;10.720;2023-02-28T05:54:43;30.00;;;10.93;;
3006;SDS011;1513;47.650;10.720;2023-02-28T05:57:11;26.97;;;10.87;;
3006;SDS011;1513;47.650;10.720;2023-02-28T05:59:37;26.10;;;10.27;;
3006;SDS011;1513;47.650;10.720;2023-02-28T06:02:05;33.20;;;10.70;;
3006;SDS011;1513;47.650;10.720;2023-02-28T06:04:35;33.97;;;12.17;;
3006;SDS011;1513;47.650;10.720;2023-02-28T06:07:01;32.70;;;13.00;;
3006;SDS011;1513;47.650;10.720;2023-02-28T06:09:28;28.13;;;10.90;;
3006;SDS011;1513;47.650;10.720;2023-02-28T06:11:56;26.73;;;10.00;;
3006;SDS011;1513;47.650;10.720;2023-02-28T06:14:23;31.43;;;11.53;;
3006;SDS011;1513;47.650;10.720;2023-02-28T06:16:50;29.10;;;11.00;;
3006;SDS011;1513;47.650;10.720;2023-02-28T06:19:16;55.53;;;13.20;;
3006;SDS011;1513;47.650;10.720;2023-02-28T06:21:43;28.20;;;11.97;;
3006;SDS011;1513;47.650;10.720;2023-02-28T06:24:09;26.60;;;10.80;;
3006;SDS011;1513;47.650;10.720;2023-02-28T06:26:36;28.57;;;11.20;;
3006;SDS011;1513;47.650;10.720;2023-02-28T06:29:02;22.47;;;10.27;;
3006;SDS011;1513;47.650;10.720;2023-02-28T06:31:28;24.70;;;10.03;;
3006;SDS011;1513;47.650;10.720;2023-02-28T06:33:55;24.90;;;11.17;;
3006;SDS011;1513;47.650;10.720;2023-02-28T06:36:22;22.13;;;8.70;;
3006;SDS011;1513;47.650;10.720;2023-02-28T06:38:48;26.47;;;9.87;;
3006;SDS011;1513;47.650;10.720;2023-02-28T06:41:20;14.87;;;5.80;;
3006;SDS011;1513;47.650;10.720;2023-02-28T06:43:50;27.30;;;11.07;;
3006;SDS011;1513;47.650;10.720;2023-02-28T06:46:16;31.43;;;11.97;;
3006;SDS011;1513;47.650;10.720;2023-02-28T06:48:43;23.27;;;9.03;;
3006;SDS011;1513;47.650;10.720;2023-02-28T06:51:11;28.83;;;11.40;;
3006;SDS011;1513;47.650;10.720;2023-02-28T06:53:40;25.77;;;10.50;;
3006;SDS011;1513;47.650;10.720;2023-02-28T06:56:07;25.70;;;10.30;;
3006;SDS011;1513;47.650;10.720;2023-02-28T06:58:34;28.37;;;10.77;;
3006;SDS011;1513;47.650;10.720;2023-02-28T07:01:01;27.70;;;11.30;;
3006;SDS011;1513;47.650;10.720;2023-02-28T07:03:28;26.03;;;10.23;;
3006;SDS011;1513;47.650;10.720;2023-02-28T07:05:55;22.50;;;10.63;;
3006;SDS011;1513;47.650;10.720;2023-02-28T07:08:22;23.63;;;9.90;;
3006;SDS011;1513;47.650;10.720;2023-02-28T07:10:52;27.63;;;10.57;;
3006;SDS011;1513;47.650;10.720;2023-02-28T07:13:19;29.90;;;9.90;;
3006;SDS011;1513;47.650;10.720;2023-02-28T07:15:56;24.27;;;10.10;;
3006;SDS011;1513;47.650;10.720;2023-02-28T07:18:24;25.10;;;11.03;;
3006;SDS011;1513;47.650;10.720;2023-02-28T07:20:50;29.37;;;10.97;;
3006;SDS011;1513;47.650;10.720;2023-02-28T07:23:17;25.77;;;11.00;;
3006;SDS011;1513;47.650;10.720;2023-02-28T07:25:43;27.50;;;10.97;;
3006;SDS011;1513;47.650;10.720;2023-02-28T07:28:10;19.73;;;9.20;;
3006;SDS011;1513;47.650;10.720;2023-02-28T07:30:37;19.53;;;9.50;;
3006;SDS011;1513;47.650;10.720;2023-02-28T07:33:04;27.00;;;10.03;;
3006;SDS011;1513;47.650;10.720;2023-02-28T07:35:30;29.43;;;11.70;;
3006;SDS011;1513;47.650;10.720;2023-02-28T07:37:59;28.47;;;10.00;;
3006;SDS011;1513;47.650;10.720;2023-02-28T07:40:26;22.33;;;8.67;;
3006;SDS011;1513;47.650;10.720;2023-02-28T07:42:52;27.03;;;10.40;;
3006;SDS011;1513;47.650;10.720;2023-02-28T07:45:18;35.23;;;12.27;;
3006;SDS011;1513;47.650;10.720;2023-02-28T07:47:44;28.57;;;10.60;;
3006;SDS011;1513;47.650;10.720;2023-02-28T07:50:12;26.03;;;10.73;;
3006;SDS011;1513;47.650;10.720;2023-02-28T07:52:39;26.03;;;10.43;;
3006;SDS011;1513;47.650;10.720;2023-02-28T07:55:06;27.83;;;10.30;;
3006;SDS011;1513;47.650;10.720;2023-02-28T07:57:34;22.03;;;9.80;;
3006;SDS011;1513;47.650;10.720;2023-02-28T08:00:01;26.10;;;10.17;;
3006;SDS011;1513;47.650;10.720;2023-02-28T08:02:36;22.13;;;9.30;;
3006;SDS011;1513;47.650;10.720;2023-02-28T08:05:03;26.53;;;11.00;;
3006;SDS011;1513;47.650;10.720;2023-02-28T08:07:30;23.80;;;9.70;;
3006;SDS011;1513;47.650;10.720;2023-02-28T08:09:56;27.27;;;10.90;;
3006;SDS011;1513;47.650;10.720;2023-02-28T08:12:22;31.87;;;11.83;;
3006;SDS011;1513;47.650;10.720;2023-02-28T08:14:48;23.53;;;9.77;;
3006;SDS011;1513;47.650;10.720;2023-02-28T08:17:14;22.90;;;8.63;;
3006;SDS011;1513;47.650;10.720;2023-02-28T08:19:41;23.67;;;10.20;;
3006;SDS011;1513;47.650;10.720;2023-02-28T08:22:07;20.47;;;8.60;;
3006;SDS011;1513;47.650;10.720;2023-02-28T08:24:33;23.00;;;9.93;;
3006;SDS011;1513;47.650;10.720;2023-02-28T08:26:59;22.07;;;10.23;;
3006;SDS011;1513;47.650;10.720;2023-02-28T08:29:26;28.00;;;10.80;;
3006;SDS011;1513;47.650;10.720;2023-02-28T08:31:52;35.00;;;14.13;;
3006;SDS011;1513;47.650;10.720;2023-02-28T08:34:18;28.80;;;13.00;;
3006;SDS011;1513;47.650;10.720;2023-02-28T08:36:44;40.77;;;17.37;;
3006;SDS011;1513;47.650;10.720;2023-02-28T08:39:11;45.53;;;22.07;;
3006;SDS011;1513;47.650;10.720;2023-02-28T08:41:38;104.13;;;40.27;;
3006;SDS011;1513;47.650;10.720;2023-02-28T08:44:04;57.53;;;19.50;;
3006;SDS011;1513;47.650;10.720;2023-02-28T08:46:30;35.17;;;13.53;;
3006;SDS011;1513;47.650;10.720;2023-02-28T08:48:56;27.53;;;10.80;;
3006;SDS011;1513;47.650;10.720;2023-02-28T08:51:25;25.07;;;10.30;;
3006;SDS011;1513;47.650;10.720;2023-02-28T08:53:55;28.17;;;11.50;;
3006;SDS011;1513;47.650;10.720;2023-02-28T08:56:24;26.40;;;9.80;;
3006;SDS011;1513;47.650;10.720;2023-02-28T08:58:53;29.23;;;10.63;;
3006;SDS011;1513;47.650;10.720;2023-02-28T09:01:22;21.83;;;10.37;;
3006;SDS011;1513;47.650;10.720;2023-02-28T09:03:51;26.40;;;11.13;;
3006;SDS011;1513;47.650;10.720;2023-02-28T09:06:19;21.00;;;10.80;;
3006;SDS011;1513;47.650;10.720;2023-02-28T09:08:46;26.53;;;10.60;;
3006;SDS011;1513;47.650;10.720;2023-02-28T09:11:13;26.60;;;10.77;;
3006;SDS011;1513;47.650;10.720;2023-02-28T09:13:39;19.30;;;10.00;;
3006;SDS011;1513;47.650;10.720;2023-02-28T09:16:07;20.37;;;10.10;;
3006;SDS011;1513;47.650;10.720;2023-02-28T09:18:35;18.63;;;9.67;;
3006;SDS011;1513;47.650;10.720;2023-02-28T09:21:03;17.50;;;9.23;;
3006;SDS011;1513;47.650;10.720;2023-02-28T09:23:30;21.30;;;9.40;;
3006;SDS011;1513;47.650;10.720;2023-02-28T09:25:56;20.27;;;9.27;;
3006;SDS011;1513;47.650;10.720;2023-02-28T09:28:23;21.33;;;8.60;;
3006;SDS011;1513;47.650;10.720;2023-02-28T09:30:50;18.87;;;8.60;;
3006;SDS011;1513;47.650;10.720;2023-02-28T09:33:18;16.90;;;8.10;;
3006;SDS011;1513;47.650;10.720;2023-02-28T09:35:49;21.73;;;9.50;;
3006;SDS011;1513;47.650;10.720;2023-02-28T09:38:16;18.23;;;8.43;;
3006;SDS011;1513;47.650;10.720;2023-02-28T09:43:14;21.03;;;9.73;;
3006;SDS011;1513;47.650;10.720;2023-02-28T09:45:43;23.10;;;11.90;;
3006;SDS011;1513;47.650;10.720;2023-02-28T09:48:22;26.90;;;10.47;;
3006;SDS011;1513;47.650;10.720;2023-02-28T09:54:00;23.03;;;9.93;;
3006;SDS011;1513;47.650;10.720;2023-02-28T09:56:36;24.27;;;11.10;;
3006;SDS011;1513;47.650;10.720;2023-02-28T09:59:20;27.27;;;11.00;;
3006;SDS011;1513;47.650;10.720;2023-02-28T10:10:06;20.70;;;10.00;;
3006;SDS011;1513;47.650;10.720;2023-02-28T10:13:00;23.20;;;10.20;;
3006;SDS011;1513;47.650;10.720;2023-02-28T10:15:31;22.90;;;10.87;;
3006;SDS011;1513;47.650;10.720;2023-02-28T10:17:58;21.17;;;9.53;;
3006;SDS011;1513;47.650;10.720;2023-02-28T10:20:28;26.43;;;11.40;;
3006;SDS011;1513;47.650;10.720;2023-02-28T10:25:44;24.30;;;10.23;;
3006;SDS011;1513;47.650;10.720;2023-02-28T10:28:13;25.83;;;11.30;;
3006;SDS011;1513;47.650;10.720;2023-02-28T10:30:42;26.13;;;11.17;;
3006;SDS011;1513;47.650;10.720;2023-02-28T10:33:18;25.97;;;11.97;;
3006;SDS011;1513;47.650;10.720;2023-02-28T10:35:49;21.57;;;9.70;;
3006;SDS011;1513;47.650;10.720;2023-02-28T10:38:38;21.00;;;9.73;;
3006;SDS011;1513;47.650;10.720;2023-02-28T10:41:08;18.97;;;9.33;;
3006;SDS011;1513;47.650;10.720;2023-02-28T10:43:40;19.60;;;9.17;;
3006;SDS011;1513;47.650;10.720;2023-02-28T10:48:49;19.23;;;9.37;;
3006;SDS011;1513;47.650;10.720;2023-02-28T10:51:25;19.13;;;9.73;;
3006;SDS011;1513;47.650;10.720;2023-02-28T10:53:51;20.07;;;9.60;;
3006;SDS011;1513;47.650;10.720;2023-02-28T10:56:22;22.80;;;9.90;;
3006;SDS011;1513;47.650;10.720;2023-02-28T10:59:03;22.10;;;9.40;;
3006;SDS011;1513;47.650;10.720;2023-02-28T11:06:58;18.07;;;8.67;;
3006;SDS011;1513;47.650;10.720;2023-02-28T11:12:00;22.80;;;10.67;;
3006;SDS011;1513;47.650;10.720;2023-02-28T11:14:33;20.40;;;9.00;;
3006;SDS011;1513;47.650;10.720;2023-02-28T11:17:13;21.10;;;9.90;;
3006;SDS011;1513;47.650;10.720;2023-02-28T11:19:45;23.27;;;10.70;;
3006;SDS011;1513;47.650;10.720;2023-02-28T11:22:16;22.30;;;9.93;;
3006;SDS011;1513;47.650;10.720;2023-02-28T11:24:46;22.07;;;10.40;;
3006;SDS011;1513;47.650;10.720;2023-02-28T11:28:01;20.97;;;10.40;;
3006;SDS011;1513;47.650;10.720;2023-02-28T11:30:01;24.23;;;10.17;;
3006;SDS011;1513;47.650;10.720;2023-02-28T11:32:29;18.43;;;8.70;;
3006;SDS011;1513;47.650;10.720;2023-02-28T11:35:01;25.50;;;11.83;;
3006;SDS011;1513;47.650;10.720;2023-02-28T11:37:30;24.13;;;12.23;;
3006;SDS011;1513;47.650;10.720;2023-02-28T11:39:57;28.40;;;10.67;;
3006;SDS011;1513;47.650;10.720;2023-02-28T11:53:35;27.73;;;12.90;;
3006;SDS011;1513;47.650;10.720;2023-02-28T11:56:07;21.53;;;11.13;;
3006;SDS011;1513;47.650;10.720;2023-02-28T11:58:48;37.80;;;15.47;;
3006;SDS011;1513;47.650;10.720;2023-02-28T12:04:47;30.37;;;11.90;;
3006;SDS011;1513;47.650;10.720;2023-02-28T12:10:35;25.83;;;12.00;;
3006;SDS011;1513;47.650;10.720;2023-02-28T12:13:23;30.23;;;12.77;;
3006;SDS011;1513;47.650;10.720;2023-02-28T12:21:34;21.60;;;10.00;;
3006;SDS011;1513;47.650;10.720;2023-02-28T12:24:31;32.07;;;13.80;;
3006;SDS011;1513;47.650;10.720;2023-02-28T12:27:09;31.87;;;13.90;;
3006;SDS011;1513;47.650;10.720;2023-02-28T12:29:55;31.17;;;12.87;;
3006;SDS011;1513;47.650;10.720;2023-02-28T12:32:37;27.57;;;12.03;;
3006;SDS011;1513;47.650;10.720;2023-02-28T12:37:36;40.50;;;14.77;;
3006;SDS011;1513;47.650;10.720;2023-02-28T12:40:28;32.87;;;14.07;;
3006;SDS011;1513;47.650;10.720;2023-02-28T12:43:19;32.63;;;14.10;;
3006;SDS011;1513;47.650;10.720;2023-02-28T12:45:56;27.63;;;11.50;;
3006;SDS011;1513;47.650;10.720;2023-02-28T12:48:31;33.93;;;14.57;;
3006;SDS011;1513;47.650;10.720;2023-02-28T12:51:17;35.13;;;14.10;;
3006;SDS011;1513;47.650;10.720;2023-02-28T12:53:50;37.93;;;17.57;;
3006;SDS011;1513;47.650;10.720;2023-02-28T12:59:25;36.43;;;15.60;;
3006;SDS011;1513;47.650;10.720;2023-02-28T13:02:26;36.53;;;15.00;;
3006;SDS011;1513;47.650;10.720;2023-02-28T13:10:39;34.27;;;15.40;;
3006;SDS011;1513;47.650;10.720;2023-02-28T13:13:17;43.17;;;16.30;;
3006;SDS011;1513;47.650;10.720;2023-02-28T13:18:32;33.47;;;15.23;;
3006;SDS011;1513;47.650;10.720;2023-02-28T13:21:09;37.53;;;14.83;;
3006;SDS011;1513;47.650;10.720;2023-02-28T13:26:31;53.90;;;21.73;;
3006;SDS011;1513;47.650;10.720;2023-02-28T13:47:29;55.90;;;23.37;;
3006;SDS011;1513;47.650;10.720;2023-02-28T13:50:14;41.97;;;18.03;;
3006;SDS011;1513;47.650;10.720;2023-02-28T13:52:48;55.93;;;21.20;;
3006;SDS011;1513;47.650;10.720;2023-02-28T14:06:26;37.27;;;15.80;;
3006;SDS011;1513;47.650;10.720;2023-02-28T14:09:06;35.57;;;15.37;;
3006;SDS011;1513;47.650;10.720;2023-02-28T14:11:48;44.20;;;17.27;;
3006;SDS011;1513;47.650;10.720;2023-02-28T14:17:01;34.60;;;14.60;;
3006;SDS011;1513;47.650;10.720;2023-02-28T14:19:30;40.50;;;16.40;;
3006;SDS011;1513;47.650;10.720;2023-02-28T14:27:32;46.90;;;18.37;;
3006;SDS011;1513;47.650;10.720;2023-02-28T14:30:29;45.97;;;17.30;;
3006;SDS011;1513;47.650;10.720;2023-02-28T14:33:25;46.17;;;18.30;;
3006;SDS011;1513;47.650;10.720;2023-02-28T14:38:20;48.60;;;17.40;;
3006;SDS011;1513;47.650;10.720;2023-02-28T14:40:54;45.50;;;16.20;;
3006;SDS011;1513;47.650;10.720;2023-02-28T14:43:25;48.83;;;19.53;;
3006;SDS011;1513;47.650;10.720;2023-02-28T14:46:00;56.03;;;23.87;;
3006;SDS011;1513;47.650;10.720;2023-02-28T14:48:27;42.20;;;16.40;;
3006;SDS011;1513;47.650;10.720;2023-02-28T14:50:55;53.00;;;19.87;;
3006;SDS011;1513;47.650;10.720;2023-02-28T14:53:23;48.63;;;18.87;;
3006;SDS011;1513;47.650;10.720;2023-02-28T14:55:52;48.03;;;18.10;;
3006;SDS011;1513;47.650;10.720;2023-02-28T14:58:26;39.97;;;15.20;;
3006;SDS011;1513;47.650;10.720;2023-02-28T15:00:55;43.40;;;16.60;;
3006;SDS011;1513;47.650;10.720;2023-02-28T15:06:03;41.70;;;16.97;;
3006;SDS011;1513;47.650;10.720;2023-02-28T15:08:31;41.50;;;17.37;;
3006;SDS011;1513;47.650;10.720;2023-02-28T15:11:05;50.00;;;19.27;;
3006;SDS011;1513;47.650;10.720;2023-02-28T15:14:02;38.60;;;14.87;;
3006;SDS011;1513;47.650;10.720;2023-02-28T15:16:33;46.23;;;17.63;;
3006;SDS011;1513;47.650;10.720;2023-02-28T15:19:07;43.40;;;17.40;;
3006;SDS011;1513;47.650;10.720;2023-02-28T15:21:41;56.77;;;21.83;;
3006;SDS011;1513;47.650;10.720;2023-02-28T15:24:15;53.47;;;19.07;;
3006;SDS011;1513;47.650;10.720;2023-02-28T15:27:00;47.03;;;17.03;;
3006;SDS011;1513;47.650;10.720;2023-02-28T15:29:34;61.10;;;21.93;;
3006;SDS011;1513;47.650;10.720;2023-02-28T15:32:18;46.00;;;18.13;;
3006;SDS011;1513;47.650;10.720;2023-02-28T15:34:52;50.53;;;18.63;;
3006;SDS011;1513;47.650;10.720;2023-02-28T15:40:03;49.53;;;18.90;;
3006;SDS011;1513;47.650;10.720;2023-02-28T15:42:35;54.10;;;19.33;;
3006;SDS011;1513;47.650;10.720;2023-02-28T15:45:01;55.13;;;20.17;;
3006;SDS011;1513;47.650;10.720;2023-02-28T15:47:29;42.00;;;15.83;;
3006;SDS011;1513;47.650;10.720;2023-02-28T15:49:59;55.63;;;19.83;;
3006;SDS011;1513;47.650;10.720;2023-02-28T15:52:28;46.60;;;19.53;;
3006;SDS011;1513;47.650;10.720;2023-02-28T15:55:11;46.97;;;17.60;;
3006;SDS011;1513;47.650;10.720;2023-02-28T15:57:48;45.87;;;18.10;;
3006;SDS011;1513;47.650;10.720;2023-02-28T16:00:19;48.17;;;18.10;;
3006;SDS011;1513;47.650;10.720;2023-02-28T16:02:47;50.40;;;19.23;;
3006;SDS011;1513;47.650;10.720;2023-02-28T16:07:59;48.70;;;18.77;;
3006;SDS011;1513;47.650;10.720;2023-02-28T16:10:39;51.07;;;18.97;;
3006;SDS011;1513;47.650;10.720;2023-02-28T16:13:05;53.97;;;21.77;;
3006;SDS011;1513;47.650;10.720;2023-02-28T16:15:37;48.70;;;18.03;;
3006;SDS011;1513;47.650;10.720;2023-02-28T16:18:08;47.50;;;19.80;;
3006;SDS011;1513;47.650;10.720;2023-02-28T16:20:35;56.77;;;19.20;;
3006;SDS011;1513;47.650;10.720;2023-02-28T16:23:02;50.93;;;19.97;;
3006;SDS011;1513;47.650;10.720;2023-02-28T16:25:33;57.47;;;20.33;;
3006;SDS011;1513;47.650;10.720;2023-02-28T16:28:04;52.10;;;19.60;;
3006;SDS011;1513;47.650;10.720;2023-02-28T16:30:43;59.33;;;22.03;;
3006;SDS011;1513;47.650;10.720;2023-02-28T16:33:10;73.30;;;22.97;;
3006;SDS011;1513;47.650;10.720;2023-02-28T16:35:36;56.43;;;20.27;;
3006;SDS011;1513;47.650;10.720;2023-02-28T16:38:02;66.17;;;22.53;;
3006;SDS011;1513;47.650;10.720;2023-02-28T16:40:29;49.50;;;17.80;;
3006;SDS011;1513;47.650;10.720;2023-02-28T16:42:59;50.47;;;17.60;;
3006;SDS011;1513;47.650;10.720;2023-02-28T16:45:27;52.60;;;20.00;;
3006;SDS011;1513;47.650;10.720;2023-02-28T16:47:54;50.40;;;18.53;;
3006;SDS011;1513;47.650;10.720;2023-02-28T16:50:30;55.80;;;22.40;;
3006;SDS011;1513;47.650;10.720;2023-02-28T16:52:59;63.47;;;22.13;;
3006;SDS011;1513;47.650;10.720;2023-02-28T16:55:25;48.40;;;17.20;;
3006;SDS011;1513;47.650;10.720;2023-02-28T16:57:56;49.60;;;18.30;;
3006;SDS011;1513;47.650;10.720;2023-02-28T17:00:24;46.08;;;17.48;;
3006;SDS011;1513;47.650;10.720;2023-02-28T17:02:51;48.27;;;18.17;;
3006;SDS011;1513;47.650;10.720;2023-02-28T17:05:17;52.80;;;19.40;;
3006;SDS011;1513;47.650;10.720;2023-02-28T17:07:44;48.37;;;18.73;;
3006;SDS011;1513;47.650;10.720;2023-02-28T17:10:18;45.60;;;19.23;;
3006;SDS011;1513;47.650;10.720;2023-02-28T17:12:46;51.40;;;18.77;;
3006;SDS011;1513;47.650;10.720;2023-02-28T17:15:14;45.50;;;17.57;;
3006;SDS011;1513;47.650;10.720;2023-02-28T17:17:41;45.17;;;17.70;;
3006;SDS011;1513;47.650;10.720;2023-02-28T17:20:18;48.20;;;17.53;;
3006;SDS011;1513;47.650;10.720;2023-02-28T17:22:47;43.40;;;17.27;;
3006;SDS011;1513;47.650;10.720;2023-02-28T17:25:17;45.70;;;18.57;;
3006;SDS011;1513;47.650;10.720;2023-02-28T17:27:43;48.33;;;19.27;;